sensor_id;sensor_type;location;lat;lon;timestamp;pressure;altitude;pressure_sealevel;temperature;humidity
71764;BME280;59602;52.142;5.408;2022-11-20T00:01:21;101564.75;;;-0.89;77.55
71764;BME280;59602;52.142;5.408;2022-11-20T00:03:50;101561.00;;;-0.88;77.40
71764;BME280;59602;52.142;5.408;2022-11-20T00:06:19;101561.28;;;-0.89;77.73
71764;BME280;59602;52.142;5.408;2022-11-20T00:08:46;101555.44;;;-0.91;77.48
71764;BME280;59602;52.142;5.408;2022-11-20T00:11:16;101549.06;;;-0.95;77.56
71764;BME280;59602;52.142;5.408;2022-11-20T00:13:44;101554.97;;;-0.98;77.92
71764;BME280;59602;52.142;5.408;2022-11-20T00:16:13;101549.63;;;-0.98;77.82
71764;BME280;59602;52.142;5.408;2022-11-20T00:18:40;101553.38;;;-0.99;77.71
71764;BME280;59602;52.142;5.408;2022-11-20T00:21:12;101551.28;;;-1.02;77.37
71764;BME280;59602;52.142;5.408;2022-11-20T00:23:39;101550.78;;;-1.05;77.88
71764;BME280;59602;52.142;5.408;2022-11-20T00:26:07;101554.50;;;-1.06;78.21
71764;BME280;59602;52.142;5.408;2022-11-20T00:28:34;101552.94;;;-1.07;78.09
71764;BME280;59602;52.142;5.408;2022-11-20T00:31:05;101552.63;;;-1.05;78.01
71764;BME280;59602;52.142;5.408;2022-11-20T00:33:33;101545.72;;;-1.06;77.81
71764;BME280;59602;52.142;5.408;2022-11-20T00:36:05;101542.81;;;-1.10;77.81
71764;BME280;59602;52.142;5.408;2022-11-20T00:38:32;101546.06;;;-1.13;78.11
71764;BME280;59602;52.142;5.408;2022-11-20T00:41:01;101541.81;;;-1.14;78.28
71764;BME280;59602;52.142;5.408;2022-11-20T00:43:28;101543.97;;;-1.16;78.26
71764;BME280;59602;52.142;5.408;2022-11-20T00:45:59;101543.66;;;-1.14;78.15
71764;BME280;59602;52.142;5.408;2022-11-20T00:48:26;101547.94;;;-1.13;78.01
71764;BME280;59602;52.142;5.408;2022-11-20T00:50:53;101547.94;;;-1.13;78.05
71764;BME280;59602;52.142;5.408;2022-11-20T00:53:20;101543.97;;;-1.16;78.27
71764;BME280;59602;52.142;5.408;2022-11-20T00:58:19;101534.91;;;-1.20;78.22
71764;BME280;59602;52.142;5.408;2022-11-20T01:00:46;101514.44;;;-1.24;78.10
71764;BME280;59602;52.142;5.408;2022-11-20T01:03:12;101530.94;;;-1.22;78.04
71764;BME280;59602;52.142;5.408;2022-11-20T01:05:39;101528.56;;;-1.24;78.36
71764;BME280;59602;52.142;5.408;2022-11-20T01:08:05;101528.56;;;-1.24;78.17
71764;BME280;59602;52.142;5.408;2022-11-20T01:10:32;101519.47;;;-1.23;77.95
71764;BME280;59602;52.142;5.408;2022-11-20T01:13:00;101523.50;;;-1.26;77.94
71764;BME280;59602;52.142;5.408;2022-11-20T01:15:50;101523.50;;;-1.26;78.14
71764;BME280;59602;52.142;5.408;2022-11-20T01:18:17;101531.81;;;-1.27;77.81
71764;BME280;59602;52.142;5.408;2022-11-20T01:20:43;101519.00;;;-1.30;78.10
71764;BME280;59602;52.142;5.408;2022-11-20T01:23:10;101513.41;;;-1.29;78.20
71764;BME280;59602;52.142;5.408;2022-11-20T01:25:36;101510.22;;;-1.31;78.00
71764;BME280;59602;52.142;5.408;2022-11-20T01:28:03;101507.81;;;-1.32;78.06
71764;BME280;59602;52.142;5.408;2022-11-20T01:30:29;101511.31;;;-1.32;78.01
71764;BME280;59602;52.142;5.408;2022-11-20T01:32:56;101510.78;;;-1.34;78.48
71764;BME280;59602;52.142;5.408;2022-11-20T01:35:22;101509.19;;;-1.35;77.88
71764;BME280;59602;52.142;5.408;2022-11-20T01:37:50;101503.34;;;-1.37;78.28
71764;BME280;59602;52.142;5.408;2022-11-20T01:40:16;101509.47;;;-1.36;78.32
71764;BME280;59602;52.142;5.408;2022-11-20T01:42:47;101517.75;;;-1.38;77.93
71764;BME280;59602;52.142;5.408;2022-11-20T01:45:56;101517.78;;;-1.43;78.24
71764;BME280;59602;52.142;5.408;2022-11-20T01:48:27;101515.41;;;-1.44;78.14
71764;BME280;59602;52.142;5.408;2022-11-20T01:50:57;101504.25;;;-1.47;78.19
71764;BME280;59602;52.142;5.408;2022-11-20T01:53:29;101510.63;;;-1.48;78.42
71764;BME280;59602;52.142;5.408;2022-11-20T01:56:00;101505.31;;;-1.48;78.48
71764;BME280;59602;52.142;5.408;2022-11-20T01:58:32;101501.84;;;-1.48;78.90
71764;BME280;59602;52.142;5.408;2022-11-20T02:01:00;101502.41;;;-1.51;77.95
71764;BME280;59602;52.142;5.408;2022-11-20T02:03:27;101508.28;;;-1.54;78.50
71764;BME280;59602;52.142;5.408;2022-11-20T02:08:33;101507.50;;;-1.55;78.69
71764;BME280;59602;52.142;5.408;2022-11-20T02:11:00;101502.47;;;-1.56;78.78
71764;BME280;59602;52.142;5.408;2022-11-20T02:13:27;101504.06;;;-1.55;79.04
71764;BME280;59602;52.142;5.408;2022-11-20T02:16:14;101500.28;;;-1.54;79.00
71764;BME280;59602;52.142;5.408;2022-11-20T02:18:42;101502.16;;;-1.55;79.34
71764;BME280;59602;52.142;5.408;2022-11-20T02:21:17;101495.53;;;-1.57;79.37
71764;BME280;59602;52.142;5.408;2022-11-20T02:23:59;101497.41;;;-1.58;79.55
71764;BME280;59602;52.142;5.408;2022-11-20T02:26:28;101497.13;;;-1.56;79.26
71764;BME280;59602;52.142;5.408;2022-11-20T02:28:56;101495.81;;;-1.59;78.81
71764;BME280;59602;52.142;5.408;2022-11-20T02:31:24;101493.44;;;-1.60;78.65
71764;BME280;59602;52.142;5.408;2022-11-20T02:33:55;101491.84;;;-1.61;78.90
71764;BME280;59602;52.142;5.408;2022-11-20T02:36:24;101488.13;;;-1.65;78.73
71764;BME280;59602;52.142;5.408;2022-11-20T02:38:52;101482.28;;;-1.68;78.82
71764;BME280;59602;52.142;5.408;2022-11-20T02:41:19;101482.06;;;-1.71;78.57
71764;BME280;59602;52.142;5.408;2022-11-20T02:43:45;101474.41;;;-1.78;78.41
71764;BME280;59602;52.142;5.408;2022-11-20T02:46:12;101481.88;;;-1.80;78.45
71764;BME280;59602;52.142;5.408;2022-11-20T02:48:39;101475.50;;;-1.84;78.33
71764;BME280;59602;52.142;5.408;2022-11-20T02:51:05;101477.66;;;-1.86;78.12
71764;BME280;59602;52.142;5.408;2022-11-20T02:53:33;101481.44;;;-1.92;77.93
71764;BME280;59602;52.142;5.408;2022-11-20T02:55:59;101482.50;;;-1.93;78.24
71764;BME280;59602;52.142;5.408;2022-11-20T02:58:27;101473.47;;;-1.97;77.83
71764;BME280;59602;52.142;5.408;2022-11-20T03:00:53;101463.09;;;-1.99;77.93
71764;BME280;59602;52.142;5.408;2022-11-20T03:03:20;101464.19;;;-2.00;78.03
71764;BME280;59602;52.142;5.408;2022-11-20T03:05:48;101464.13;;;-1.95;78.17
71764;BME280;59602;52.142;5.408;2022-11-20T03:08:15;101462.78;;;-1.92;78.24
71764;BME280;59602;52.142;5.408;2022-11-20T03:10:41;101462.56;;;-1.96;78.02
71764;BME280;59602;52.142;5.408;2022-11-20T03:13:08;101450.59;;;-1.98;77.83
71764;BME280;59602;52.142;5.408;2022-11-20T03:15:36;101456.47;;;-2.01;77.71
71764;BME280;59602;52.142;5.408;2022-11-20T03:18:03;101455.94;;;-2.03;77.66
71764;BME280;59602;52.142;5.408;2022-11-20T03:20:32;101456.78;;;-2.08;78.70
71764;BME280;59602;52.142;5.408;2022-11-20T03:22:59;101447.25;;;-2.14;78.77
71764;BME280;59602;52.142;5.408;2022-11-20T03:25:26;101443.75;;;-2.10;78.91
71764;BME280;59602;52.142;5.408;2022-11-20T03:27:54;101445.34;;;-2.09;78.72
71764;BME280;59602;52.142;5.408;2022-11-20T03:30:20;101447.75;;;-2.12;78.70
71764;BME280;59602;52.142;5.408;2022-11-20T03:32:53;101441.63;;;-2.13;78.91
71764;BME280;59602;52.142;5.408;2022-11-20T03:35:20;101444.03;;;-2.11;78.71
71764;BME280;59602;52.142;5.408;2022-11-20T03:37:46;101439.72;;;-2.07;78.72
71764;BME280;59602;52.142;5.408;2022-11-20T03:40:13;101443.97;;;-2.06;78.86
71764;BME280;59602;52.142;5.408;2022-11-20T03:42:39;101444.81;;;-2.11;78.36
71764;BME280;59602;52.142;5.408;2022-11-20T03:45:13;101439.53;;;-2.16;78.43
71764;BME280;59602;52.142;5.408;2022-11-20T03:47:40;101437.13;;;-2.17;78.43
71764;BME280;59602;52.142;5.408;2022-11-20T03:50:07;101432.66;;;-2.22;77.93
71764;BME280;59602;52.142;5.408;2022-11-20T03:52:34;101437.97;;;-2.22;78.11
71764;BME280;59602;52.142;5.408;2022-11-20T03:55:02;101444.09;;;-2.21;77.81
71764;BME280;59602;52.142;5.408;2022-11-20T03:57:28;101432.66;;;-2.22;78.18
71764;BME280;59602;52.142;5.408;2022-11-20T03:59:55;101432.44;;;-2.25;77.85
71764;BME280;59602;52.142;5.408;2022-11-20T04:02:21;101442.81;;;-2.29;77.71
71764;BME280;59602;52.142;5.408;2022-11-20T04:04:48;101432.97;;;-2.28;77.68
71764;BME280;59602;52.142;5.408;2022-11-20T04:07:15;101427.13;;;-2.31;77.85
71764;BME280;59602;52.142;5.408;2022-11-20T04:09:41;101416.50;;;-2.36;77.35
71764;BME280;59602;52.142;5.408;2022-11-20T04:12:08;101416.00;;;-2.38;77.32
71764;BME280;59602;52.142;5.408;2022-11-20T04:14:35;101420.00;;;-2.40;77.66
71764;BME280;59602;52.142;5.408;2022-11-20T04:17:03;101423.19;;;-2.38;77.51
71764;BME280;59602;52.142;5.408;2022-11-20T04:19:30;101414.41;;;-2.39;77.76
71764;BME280;59602;52.142;5.408;2022-11-20T04:21:56;101418.13;;;-2.40;77.67
71764;BME280;59602;52.142;5.408;2022-11-20T04:24:22;101403.25;;;-2.41;77.60
71764;BME280;59602;52.142;5.408;2022-11-20T04:26:49;101406.44;;;-2.44;77.88
71764;BME280;59602;52.142;5.408;2022-11-20T04:29:15;101412.84;;;-2.45;77.68
71764;BME280;59602;52.142;5.408;2022-11-20T04:31:42;101419.47;;;-2.42;77.91
71764;BME280;59602;52.142;5.408;2022-11-20T04:34:11;101418.13;;;-2.40;78.13
71764;BME280;59602;52.142;5.408;2022-11-20T04:36:38;101420.78;;;-2.40;78.33
71764;BME280;59602;52.142;5.408;2022-11-20T04:39:06;101411.22;;;-2.41;77.90
71764;BME280;59602;52.142;5.408;2022-11-20T04:41:35;101401.38;;;-2.40;78.20
71764;BME280;59602;52.142;5.408;2022-11-20T04:44:03;101403.00;;;-2.44;77.89
71764;BME280;59602;52.142;5.408;2022-11-20T04:46:36;101394.22;;;-2.45;78.02
71764;BME280;59602;52.142;5.408;2022-11-20T04:49:04;101400.91;;;-2.47;77.76
71764;BME280;59602;52.142;5.408;2022-11-20T04:51:30;101401.16;;;-2.49;77.65
71764;BME280;59602;52.142;5.408;2022-11-20T04:53:57;101398.25;;;-2.53;77.57
71764;BME280;59602;52.142;5.408;2022-11-20T04:56:24;101398.81;;;-2.56;77.45
71764;BME280;59602;52.142;5.408;2022-11-20T04:58:51;101392.19;;;-2.58;77.71
71764;BME280;59602;52.142;5.408;2022-11-20T05:01:20;101388.22;;;-2.61;77.59
71764;BME280;59602;52.142;5.408;2022-11-20T05:03:47;101386.09;;;-2.64;77.71
71764;BME280;59602;52.142;5.408;2022-11-20T05:06:15;101389.56;;;-2.63;77.92
71764;BME280;59602;52.142;5.408;2022-11-20T05:08:43;101385.03;;;-2.63;78.45
71764;BME280;59602;52.142;5.408;2022-11-20T05:11:13;101387.38;;;-2.61;78.70
71764;BME280;59602;52.142;5.408;2022-11-20T05:13:41;101381.28;;;-2.62;78.36
71764;BME280;59602;52.142;5.408;2022-11-20T05:16:13;101385.53;;;-2.61;78.40
71764;BME280;59602;52.142;5.408;2022-11-20T05:18:41;101391.13;;;-2.62;78.11
71764;BME280;59602;52.142;5.408;2022-11-20T05:21:10;101381.84;;;-2.65;78.01
71764;BME280;59602;52.142;5.408;2022-11-20T05:23:38;101379.97;;;-2.64;77.85
71764;BME280;59602;52.142;5.408;2022-11-20T05:26:07;101373.34;;;-2.67;78.12
71764;BME280;59602;52.142;5.408;2022-11-20T05:28:34;101365.09;;;-2.71;78.06
71764;BME280;59602;52.142;5.408;2022-11-20T05:33:33;101363.78;;;-2.73;77.76
71764;BME280;59602;52.142;5.408;2022-11-20T05:36:01;101362.44;;;-2.71;77.63
71764;BME280;59602;52.142;5.408;2022-11-20T05:38:28;101345.94;;;-2.73;78.14
71764;BME280;59602;52.142;5.408;2022-11-20T05:40:55;101347.03;;;-2.74;78.20
71764;BME280;59602;52.142;5.408;2022-11-20T05:43:21;101338.25;;;-2.74;78.33
71764;BME280;59602;52.142;5.408;2022-11-20T05:45:53;101341.47;;;-2.77;77.82
71764;BME280;59602;52.142;5.408;2022-11-20T05:48:20;101357.72;;;-2.79;77.69
71764;BME280;59602;52.142;5.408;2022-11-20T05:50:48;101365.97;;;-2.80;77.67
71764;BME280;59602;52.142;5.408;2022-11-20T05:53:14;101364.41;;;-2.81;77.78
71764;BME280;59602;52.142;5.408;2022-11-20T05:55:41;101374.75;;;-2.80;78.03
71764;BME280;59602;52.142;5.408;2022-11-20T05:58:08;101376.09;;;-2.82;78.15
71764;BME280;59602;52.142;5.408;2022-11-20T06:00:34;101374.00;;;-2.85;78.39
71764;BME280;59602;52.142;5.408;2022-11-20T06:03:01;101377.69;;;-2.81;78.29
71764;BME280;59602;52.142;5.408;2022-11-20T06:05:28;101381.97;;;-2.85;78.31
71764;BME280;59602;52.142;5.408;2022-11-20T06:07:55;101389.97;;;-2.90;77.82
71764;BME280;59602;52.142;5.408;2022-11-20T06:10:21;101387.59;;;-2.92;77.90
71764;BME280;59602;52.142;5.408;2022-11-20T06:12:47;101389.44;;;-2.93;78.10
71764;BME280;59602;52.142;5.408;2022-11-20T06:15:14;101396.63;;;-2.93;77.75
71764;BME280;59602;52.142;5.408;2022-11-20T06:17:40;101391.31;;;-2.93;77.89
71764;BME280;59602;52.142;5.408;2022-11-20T06:20:07;101397.41;;;-2.93;78.17
71764;BME280;59602;52.142;5.408;2022-11-20T06:22:34;101392.41;;;-2.94;78.31
71764;BME280;59602;52.142;5.408;2022-11-20T06:25:00;101395.56;;;-2.92;78.23
71764;BME280;59602;52.142;5.408;2022-11-20T06:27:27;101392.41;;;-2.94;78.07
71764;BME280;59602;52.142;5.408;2022-11-20T06:29:53;101390.25;;;-2.92;77.93
71764;BME280;59602;52.142;5.408;2022-11-20T06:32:20;101392.41;;;-2.94;77.81
71764;BME280;59602;52.142;5.408;2022-11-20T06:34:46;101391.88;;;-2.96;77.59
71764;BME280;59602;52.142;5.408;2022-11-20T06:37:13;101387.34;;;-2.96;77.82
71764;BME280;59602;52.142;5.408;2022-11-20T06:39:40;101385.47;;;-2.95;78.08
71764;BME280;59602;52.142;5.408;2022-11-20T06:42:06;101387.88;;;-2.94;77.57
71764;BME280;59602;52.142;5.408;2022-11-20T06:44:33;101387.59;;;-2.97;77.83
71764;BME280;59602;52.142;5.408;2022-11-20T06:46:59;101390.00;;;-2.96;77.74
71764;BME280;59602;52.142;5.408;2022-11-20T06:49:25;101397.72;;;-2.94;77.71
71764;BME280;59602;52.142;5.408;2022-11-20T06:51:52;101397.19;;;-2.96;77.97
71764;BME280;59602;52.142;5.408;2022-11-20T06:54:19;101395.88;;;-2.99;77.50
71764;BME280;59602;52.142;5.408;2022-11-20T06:56:47;101390.25;;;-2.97;78.00
71764;BME280;59602;52.142;5.408;2022-11-20T06:59:14;101386.56;;;-2.96;77.43
71764;BME280;59602;52.142;5.408;2022-11-20T07:01:40;101378.31;;;-3.00;77.67
71764;BME280;59602;52.142;5.408;2022-11-20T07:04:07;101373.56;;;-3.03;77.43
71764;BME280;59602;52.142;5.408;2022-11-20T07:06:34;101377.25;;;-3.04;77.57
71764;BME280;59602;52.142;5.408;2022-11-20T07:09:14;101381.25;;;-3.01;77.50
71764;BME280;59602;52.142;5.408;2022-11-20T07:20:01;101369.03;;;-3.02;77.72
71764;BME280;59602;52.142;5.408;2022-11-20T07:23:15;101369.53;;;-3.00;77.48
71764;BME280;59602;52.142;5.408;2022-11-20T07:28:31;101370.63;;;-3.01;77.78
71764;BME280;59602;52.142;5.408;2022-11-20T07:38:22;101359.94;;;-2.96;77.99
71764;BME280;59602;52.142;5.408;2022-11-20T07:49:14;101363.00;;;-2.74;78.38
71764;BME280;59602;52.142;5.408;2022-11-20T07:51:41;101355.59;;;-2.77;78.69
71764;BME280;59602;52.142;5.408;2022-11-20T07:54:07;101360.91;;;-2.77;78.70
71764;BME280;59602;52.142;5.408;2022-11-20T07:56:34;101363.53;;;-2.72;78.89
71764;BME280;59602;52.142;5.408;2022-11-20T07:59:00;101367.75;;;-2.71;78.63
71764;BME280;59602;52.142;5.408;2022-11-20T08:01:27;101366.41;;;-2.68;78.72
71764;BME280;59602;52.142;5.408;2022-11-20T08:03:53;101361.06;;;-2.63;78.93
71764;BME280;59602;52.142;5.408;2022-11-20T08:06:20;101371.41;;;-2.56;78.99
71764;BME280;59602;52.142;5.408;2022-11-20T08:08:46;101367.13;;;-2.52;78.77
71764;BME280;59602;52.142;5.408;2022-11-20T08:11:13;101359.66;;;-2.50;78.69
71764;BME280;59602;52.142;5.408;2022-11-20T08:13:58;101359.31;;;-2.43;79.17
71764;BME280;59602;52.142;5.408;2022-11-20T08:16:39;101339.28;;;-2.36;79.37
71764;BME280;59602;52.142;5.408;2022-11-20T08:19:06;101353.63;;;-2.32;79.38
71764;BME280;59602;52.142;5.408;2022-11-20T08:21:33;101347.41;;;-2.22;79.59
71764;BME280;59602;52.142;5.408;2022-11-20T08:24:04;101351.06;;;-2.13;79.33
71764;BME280;59602;52.142;5.408;2022-11-20T08:26:31;101341.94;;;-2.06;79.58
71764;BME280;59602;52.142;5.408;2022-11-20T08:28:58;101342.72;;;-2.01;79.57
71764;BME280;59602;52.142;5.408;2022-11-20T08:31:26;101345.59;;;-1.97;79.76
71764;BME280;59602;52.142;5.408;2022-11-20T08:33:53;101343.94;;;-1.93;79.74
71764;BME280;59602;52.142;5.408;2022-11-20T08:36:21;101344.72;;;-1.88;79.80
71764;BME280;59602;52.142;5.408;2022-11-20T08:38:50;101352.91;;;-1.84;80.03
71764;BME280;59602;52.142;5.408;2022-11-20T08:41:17;101353.09;;;-1.75;80.60
71764;BME280;59602;52.142;5.408;2022-11-20T08:43:50;101350.88;;;-1.68;80.66
71764;BME280;59602;52.142;5.408;2022-11-20T08:46:17;101350.84;;;-1.63;80.76
71764;BME280;59602;52.142;5.408;2022-11-20T08:48:44;101350.78;;;-1.58;80.44
71764;BME280;59602;52.142;5.408;2022-11-20T08:51:11;101342.19;;;-1.55;80.68
71764;BME280;59602;52.142;5.408;2022-11-20T08:53:39;101353.31;;;-1.48;80.81
71764;BME280;59602;52.142;5.408;2022-11-20T08:56:06;101347.34;;;-1.39;80.96
71764;BME280;59602;52.142;5.408;2022-11-20T08:58:33;101336.91;;;-1.36;81.02
71764;BME280;59602;52.142;5.408;2022-11-20T09:01:21;101345.13;;;-1.32;81.02
71764;BME280;59602;52.142;5.408;2022-11-20T09:03:48;101327.75;;;-1.30;80.84
71764;BME280;59602;52.142;5.408;2022-11-20T09:06:15;101333.59;;;-1.28;80.92
71764;BME280;59602;52.142;5.408;2022-11-20T09:08:42;101340.44;;;-1.21;81.31
71764;BME280;59602;52.142;5.408;2022-11-20T09:11:09;101340.88;;;-1.14;80.98
71764;BME280;59602;52.142;5.408;2022-11-20T09:13:36;101341.13;;;-1.11;81.35
71764;BME280;59602;52.142;5.408;2022-11-20T09:16:05;101332.25;;;-1.06;81.38
71764;BME280;59602;52.142;5.408;2022-11-20T09:18:33;101333.25;;;-1.02;81.18
71764;BME280;59602;52.142;5.408;2022-11-20T09:21:04;101330.00;;;-0.99;81.24
71764;BME280;59602;52.142;5.408;2022-11-20T09:23:33;101321.44;;;-0.96;81.44
71764;BME280;59602;52.142;5.408;2022-11-20T09:26:03;101315.44;;;-0.88;81.57
71764;BME280;59602;52.142;5.408;2022-11-20T09:28:30;101307.84;;;-0.80;81.69
71764;BME280;59602;52.142;5.408;2022-11-20T09:30:57;101294.13;;;-0.74;81.53
71764;BME280;59602;52.142;5.408;2022-11-20T09:33:24;101297.00;;;-0.70;81.62
71764;BME280;59602;52.142;5.408;2022-11-20T09:35:50;101292.91;;;-0.63;81.96
71764;BME280;59602;52.142;5.408;2022-11-20T09:38:17;101294.69;;;-0.58;81.80
71764;BME280;59602;52.142;5.408;2022-11-20T09:40:50;101293.81;;;-0.53;81.80
71764;BME280;59602;52.142;5.408;2022-11-20T09:46:07;101277.09;;;-0.45;81.49
71764;BME280;59602;52.142;5.408;2022-11-20T09:54:17;101277.81;;;-0.26;81.37
71764;BME280;59602;52.142;5.408;2022-11-20T09:56:48;101282.28;;;-0.21;81.44
71764;BME280;59602;52.142;5.408;2022-11-20T09:59:40;101277.34;;;-0.14;81.62
71764;BME280;59602;52.142;5.408;2022-11-20T10:05:02;101272.41;;;-0.07;81.70
71764;BME280;59602;52.142;5.408;2022-11-20T10:07:37;101269.63;;;-0.02;81.92
71764;BME280;59602;52.142;5.408;2022-11-20T10:10:15;101263.56;;;0.07;81.72
71764;BME280;59602;52.142;5.408;2022-11-20T10:12:57;101257.53;;;0.15;81.55
71764;BME280;59602;52.142;5.408;2022-11-20T10:15:34;101255.88;;;0.19;81.80
71764;BME280;59602;52.142;5.408;2022-11-20T10:18:21;101252.78;;;0.26;81.76
71764;BME280;59602;52.142;5.408;2022-11-20T10:26:17;101234.25;;;0.43;82.24
71764;BME280;59602;52.142;5.408;2022-11-20T10:31:31;101230.53;;;0.53;81.98
71764;BME280;59602;52.142;5.408;2022-11-20T10:34:02;101228.84;;;0.57;81.83
71764;BME280;59602;52.142;5.408;2022-11-20T10:36:49;101213.78;;;0.61;81.72
71764;BME280;59602;52.142;5.408;2022-11-20T10:39:25;101219.31;;;0.65;81.81
71764;BME280;59602;52.142;5.408;2022-11-20T10:41:55;101219.22;;;0.70;82.03
71764;BME280;59602;52.142;5.408;2022-11-20T10:44:28;101211.06;;;0.75;82.14
71764;BME280;59602;52.142;5.408;2022-11-20T10:47:19;101207.16;;;0.81;81.96
71764;BME280;59602;52.142;5.408;2022-11-20T10:49:49;101208.31;;;0.89;82.50
71764;BME280;59602;52.142;5.408;2022-11-20T10:55:17;101187.44;;;0.99;82.43
71764;BME280;59602;52.142;5.408;2022-11-20T10:58:00;101172.84;;;1.06;82.71
71764;BME280;59602;52.142;5.408;2022-11-20T11:00:31;101183.41;;;1.11;82.97
71764;BME280;59602;52.142;5.408;2022-11-20T11:02:58;101182.50;;;1.15;82.87
71764;BME280;59602;52.142;5.408;2022-11-20T11:05:39;101175.44;;;1.19;83.06
71764;BME280;59602;52.142;5.408;2022-11-20T11:08:12;101176.41;;;1.23;83.19
71764;BME280;59602;52.142;5.408;2022-11-20T11:10:48;101160.50;;;1.27;83.21
71764;BME280;59602;52.142;5.408;2022-11-20T11:13:26;101160.88;;;1.34;83.61
71764;BME280;59602;52.142;5.408;2022-11-20T11:15:53;101151.56;;;1.40;83.75
71764;BME280;59602;52.142;5.408;2022-11-20T11:18:26;101151.75;;;1.44;83.60
71764;BME280;59602;52.142;5.408;2022-11-20T11:20:54;101147.66;;;1.47;83.61
71764;BME280;59602;52.142;5.408;2022-11-20T11:23:34;101140.75;;;1.45;83.90
71764;BME280;59602;52.142;5.408;2022-11-20T11:26:03;101130.97;;;1.50;83.93
71764;BME280;59602;52.142;5.408;2022-11-20T11:28:30;101127.38;;;1.54;84.04
71764;BME280;59602;52.142;5.408;2022-11-20T11:30:58;101125.16;;;1.56;83.99
71764;BME280;59602;52.142;5.408;2022-11-20T11:33:28;101118.06;;;1.60;84.40
71764;BME280;59602;52.142;5.408;2022-11-20T11:35:57;101111.28;;;1.63;84.63
71764;BME280;59602;52.142;5.408;2022-11-20T11:41:01;101095.22;;;1.72;84.57
71764;BME280;59602;52.142;5.408;2022-11-20T11:43:31;101084.22;;;1.73;84.68
71764;BME280;59602;52.142;5.408;2022-11-20T11:46:32;101085.00;;;1.74;85.03
71764;BME280;59602;52.142;5.408;2022-11-20T11:49:08;101082.78;;;1.76;85.04
71764;BME280;59602;52.142;5.408;2022-11-20T11:51:56;101085.94;;;1.78;85.53
71764;BME280;59602;52.142;5.408;2022-11-20T11:54:38;101079.16;;;1.80;85.45
71764;BME280;59602;52.142;5.408;2022-11-20T11:57:20;101075.88;;;1.83;85.63
71764;BME280;59602;52.142;5.408;2022-11-20T12:02:31;101073.03;;;1.89;86.60
71764;BME280;59602;52.142;5.408;2022-11-20T12:05:04;101064.81;;;1.94;86.26
71764;BME280;59602;52.142;5.408;2022-11-20T12:10:17;101047.47;;;2.00;87.02
71764;BME280;59602;52.142;5.408;2022-11-20T12:12:54;101036.94;;;2.03;87.23
71764;BME280;59602;52.142;5.408;2022-11-20T12:15:29;101042.13;;;2.08;87.26
71764;BME280;59602;52.142;5.408;2022-11-20T12:17:56;101037.53;;;2.09;87.32
71764;BME280;59602;52.142;5.408;2022-11-20T12:20:27;101038.78;;;2.12;87.25
71764;BME280;59602;52.142;5.408;2022-11-20T12:23:07;101040.53;;;2.16;87.64
71764;BME280;59602;52.142;5.408;2022-11-20T12:25:38;101036.41;;;2.19;87.73
71764;BME280;59602;52.142;5.408;2022-11-20T12:30:48;101028.22;;;2.24;87.49
71764;BME280;59602;52.142;5.408;2022-11-20T12:41:29;101014.03;;;2.23;88.13
71764;BME280;59602;52.142;5.408;2022-11-20T12:44:40;101010.22;;;2.24;88.60
71764;BME280;59602;52.142;5.408;2022-11-20T12:47:42;100996.50;;;2.26;88.47
71764;BME280;59602;52.142;5.408;2022-11-20T12:50:23;100996.16;;;2.27;88.78
71764;BME280;59602;52.142;5.408;2022-11-20T12:53:04;100979.75;;;2.29;88.44
71764;BME280;59602;52.142;5.408;2022-11-20T12:55:46;100964.13;;;2.31;88.99
71764;BME280;59602;52.142;5.408;2022-11-20T13:01:23;100957.34;;;2.34;88.96
71764;BME280;59602;52.142;5.408;2022-11-20T13:06:46;100936.34;;;2.36;89.17
71764;BME280;59602;52.142;5.408;2022-11-20T13:09:15;100937.59;;;2.38;89.54
71764;BME280;59602;52.142;5.408;2022-11-20T13:14:31;100937.44;;;2.43;89.74
71764;BME280;59602;52.142;5.408;2022-11-20T13:17:12;100931.72;;;2.45;89.61
71764;BME280;59602;52.142;5.408;2022-11-20T13:19:41;100932.06;;;2.43;89.09
71764;BME280;59602;52.142;5.408;2022-11-20T13:22:08;100926.38;;;2.45;89.41
71764;BME280;59602;52.142;5.408;2022-11-20T13:24:35;100920.69;;;2.46;89.37
71764;BME280;59602;52.142;5.408;2022-11-20T13:29:31;100909.94;;;2.46;89.37
71764;BME280;59602;52.142;5.408;2022-11-20T13:32:04;100900.78;;;2.47;89.39
71764;BME280;59602;52.142;5.408;2022-11-20T13:34:34;100902.38;;;2.48;89.65
71764;BME280;59602;52.142;5.408;2022-11-20T13:37:02;100905.06;;;2.48;89.68
71764;BME280;59602;52.142;5.408;2022-11-20T13:44:33;100902.50;;;2.52;90.01
71764;BME280;59602;52.142;5.408;2022-11-20T13:47:01;100886.38;;;2.52;89.94
71764;BME280;59602;52.142;5.408;2022-11-20T13:49:37;100881.50;;;2.54;89.99
71764;BME280;59602;52.142;5.408;2022-11-20T13:52:30;100882.63;;;2.53;89.91
71764;BME280;59602;52.142;5.408;2022-11-20T13:55:16;100873.31;;;2.51;90.09
71764;BME280;59602;52.142;5.408;2022-11-20T14:00:21;100879.00;;;2.49;90.25
71764;BME280;59602;52.142;5.408;2022-11-20T14:03:01;100875.19;;;2.50;90.18
71764;BME280;59602;52.142;5.408;2022-11-20T14:05:31;100876.00;;;2.51;90.47
71764;BME280;59602;52.142;5.408;2022-11-20T14:08:03;100868.25;;;2.49;90.44
71764;BME280;59602;52.142;5.408;2022-11-20T14:10:31;100870.16;;;2.48;90.42
71764;BME280;59602;52.142;5.408;2022-11-20T14:12:58;100861.00;;;2.49;90.80
71764;BME280;59602;52.142;5.408;2022-11-20T14:15:29;100838.75;;;2.49;91.25
71764;BME280;59602;52.142;5.408;2022-11-20T14:17:56;100837.63;;;2.50;90.50
71764;BME280;59602;52.142;5.408;2022-11-20T14:20:26;100833.38;;;2.49;90.95
71764;BME280;59602;52.142;5.408;2022-11-20T14:22:54;100812.38;;;2.51;91.01
71764;BME280;59602;52.142;5.408;2022-11-20T14:25:23;100805.09;;;2.52;91.10
71764;BME280;59602;52.142;5.408;2022-11-20T14:27:55;100792.47;;;2.52;90.66
71764;BME280;59602;52.142;5.408;2022-11-20T14:30:25;100804.00;;;2.53;90.90
71764;BME280;59602;52.142;5.408;2022-11-20T14:32:55;100800.97;;;2.54;90.81
71764;BME280;59602;52.142;5.408;2022-11-20T14:35:29;100819.31;;;2.52;90.88
71764;BME280;59602;52.142;5.408;2022-11-20T14:37:56;100819.31;;;2.52;91.03
71764;BME280;59602;52.142;5.408;2022-11-20T14:40:25;100803.66;;;2.54;90.88
71764;BME280;59602;52.142;5.408;2022-11-20T14:42:53;100789.16;;;2.55;91.60